Chandler, Arizona
Current Conditions -  °F | °C
As of 8:47 PM on Wednesday 22 Oct 2014 (Local Time) from KCHD Reporting Station
Few Clouds Few Clouds  
Wind Chill: 75°   Ceiling: Unl
Heat Index: 75°   Visibility: 15mi
Dew Point: 52°   Wind: 0mph
Humidity: 44%   Direction: NA
Pressure: 29.94"   Gusts: NA
Location:  33.3°N, 111.84°W
Report Text: KCHD 230347Z 00000KT 15SM FEW250 24/11 A2994 RMK LAST
Loading
Personal Weather Stations






























Interactive Weather Map
Tropical Storm Tracking
New forecast layout! Learn more

10-Day Weather Forecast

Advertisements
Track Severe Weather on mobile